createdAt,value
2023-05-11T13:13:27.507Z,17.50
2023-05-11T13:15:54.462Z,17.70
2023-05-11T13:18:21.250Z,17.60
2023-05-11T13:20:48.647Z,17.60
2023-05-11T13:23:16.018Z,17.80
2023-05-11T13:25:48.870Z,17.80
2023-05-11T13:28:16.871Z,17.80
2023-05-11T13:30:44.271Z,17.80
2023-05-11T13:33:11.082Z,17.70
2023-05-11T13:35:42.284Z,17.60
2023-05-11T13:38:10.692Z,17.50
2023-05-11T13:40:37.906Z,17.50
2023-05-11T13:43:04.911Z,17.60
2023-05-11T13:45:31.645Z,17.90
2023-05-11T13:47:58.345Z,17.90
2023-05-11T13:50:26.233Z,18.00
2023-05-11T13:52:54.275Z,18.20
2023-05-11T13:55:21.595Z,18.00
2023-05-11T13:57:48.523Z,17.90
2023-05-11T14:00:15.937Z,17.70
2023-05-11T14:02:44.292Z,17.60
2023-05-11T14:05:11.377Z,17.50
2023-05-11T14:07:47.161Z,17.40
2023-05-11T14:10:15.693Z,17.40
2023-05-11T14:12:42.505Z,17.40
2023-05-11T14:15:10.009Z,17.60
2023-05-11T14:17:36.848Z,17.60
2023-05-11T14:20:04.552Z,17.50
2023-05-11T14:22:31.483Z,17.40
2023-05-11T14:24:58.564Z,17.50
2023-05-11T14:27:25.312Z,17.60
2023-05-11T14:29:52.272Z,17.80
2023-05-11T14:32:19.622Z,17.90
2023-05-11T14:34:47.301Z,17.90
2023-05-11T14:37:14.337Z,17.90
2023-05-11T14:39:42.958Z,17.90
2023-05-11T14:42:11.762Z,18.00
2023-05-11T14:44:39.557Z,18.00
2023-05-11T14:47:07.912Z,18.10
2023-05-11T14:49:34.827Z,18.00
2023-05-11T14:52:02.219Z,18.20
2023-05-11T14:54:28.925Z,18.30
2023-05-11T14:56:57.619Z,18.20
2023-05-11T14:59:25.900Z,18.10
2023-05-11T15:01:52.846Z,18.10
2023-05-11T15:04:20.699Z,18.10
2023-05-11T15:06:47.623Z,18.00
2023-05-11T15:09:14.586Z,18.00
2023-05-11T15:11:41.363Z,18.00
2023-05-11T15:14:08.128Z,17.90
2023-05-11T15:16:34.811Z,17.90
2023-05-11T15:19:01.706Z,17.80
2023-05-11T15:21:28.508Z,17.70
2023-05-11T15:23:58.085Z,17.70
2023-05-11T15:26:25.138Z,17.70
2023-05-11T15:28:51.888Z,17.80
2023-05-11T15:31:20.666Z,17.70
2023-05-11T15:33:47.436Z,17.70
2023-05-11T15:36:15.497Z,17.80
2023-05-11T15:38:43.364Z,17.80
2023-05-11T15:41:10.074Z,17.80
2023-05-11T15:43:36.845Z,17.80
2023-05-11T15:46:04.772Z,17.80
2023-05-11T15:48:31.654Z,17.80
2023-05-11T15:51:01.002Z,17.80
2023-05-11T15:53:28.710Z,17.70
2023-05-11T15:55:55.826Z,17.70
2023-05-11T15:58:23.378Z,17.70
2023-05-11T16:00:50.483Z,17.60
2023-05-11T16:03:17.659Z,17.60
2023-05-11T16:05:45.466Z,17.60
2023-05-11T16:08:13.391Z,17.60
2023-05-11T16:10:40.468Z,17.60
2023-05-11T16:13:07.624Z,17.60
2023-05-11T16:15:34.392Z,17.60
2023-05-11T16:18:04.900Z,17.50
2023-05-11T16:20:32.421Z,17.50
2023-05-11T16:23:00.594Z,17.50
2023-05-11T16:25:28.318Z,17.50
2023-05-11T16:27:55.264Z,17.50
2023-05-11T16:30:25.092Z,17.50
2023-05-11T16:32:54.576Z,17.40
2023-05-11T16:35:22.598Z,17.40
2023-05-11T16:37:49.285Z,17.40
2023-05-11T16:40:21.109Z,17.40
2023-05-11T16:42:49.104Z,17.40
2023-05-11T16:45:16.591Z,17.30
2023-05-11T16:47:45.335Z,17.30
2023-05-11T16:50:14.704Z,17.30
2023-05-11T16:52:42.915Z,17.30
2023-05-11T16:55:10.308Z,17.30
2023-05-11T16:57:37.168Z,17.20
2023-05-11T17:00:04.418Z,17.20
2023-05-11T17:02:31.486Z,17.10
2023-05-11T17:04:58.188Z,17.20
2023-05-11T17:07:27.469Z,17.10
2023-05-11T17:09:56.967Z,17.10
2023-05-11T17:12:24.173Z,17.00
2023-05-11T17:14:51.030Z,17.00
2023-05-11T17:17:17.832Z,17.00
2023-05-11T17:19:44.513Z,17.00
2023-05-11T17:22:11.776Z,16.90
2023-05-11T17:24:38.652Z,16.90
2023-05-11T17:27:05.873Z,16.80
2023-05-11T17:29:33.159Z,16.70
2023-05-11T17:32:00.000Z,16.70
2023-05-11T17:34:28.597Z,16.60
2023-05-11T17:36:56.745Z,16.60
2023-05-11T17:39:23.564Z,16.50
2023-05-11T17:41:50.218Z,16.30
2023-05-11T17:44:17.200Z,16.30
2023-05-11T17:46:43.866Z,16.20
2023-05-11T17:49:10.756Z,16.10
2023-05-11T17:51:39.112Z,16.00
2023-05-11T17:54:06.321Z,15.90
2023-05-11T17:56:33.908Z,15.80
2023-05-11T17:59:04.130Z,15.70
2023-05-11T18:01:32.332Z,15.60
2023-05-11T18:04:00.833Z,15.50
2023-05-11T18:06:30.354Z,15.40
2023-05-11T18:08:58.862Z,15.30
2023-05-11T18:11:26.316Z,15.20
2023-05-11T18:13:55.144Z,15.10
2023-05-11T18:16:21.903Z,15.00
2023-05-11T18:18:50.407Z,14.90
2023-05-11T18:21:17.916Z,14.70
2023-05-11T18:23:45.845Z,14.60
2023-05-11T18:26:14.310Z,14.50
2023-05-11T18:28:41.013Z,14.40
2023-05-11T18:31:08.099Z,14.30
2023-05-11T18:33:37.469Z,14.30
2023-05-11T18:36:04.552Z,14.20
2023-05-11T18:38:33.213Z,14.10
2023-05-11T18:41:05.269Z,14.00
2023-05-11T18:43:34.295Z,14.00
2023-05-11T18:46:01.028Z,13.90
2023-05-11T18:48:28.245Z,13.80
2023-05-11T18:50:58.698Z,13.70
2023-05-11T18:53:25.682Z,13.60
2023-05-11T18:55:54.290Z,13.50
2023-05-11T18:58:22.177Z,13.40
2023-05-11T19:00:50.312Z,13.20
2023-05-11T19:03:20.837Z,13.10
2023-05-11T19:05:48.794Z,13.10
2023-05-11T19:08:15.620Z,13.00
2023-05-11T19:10:45.177Z,12.80
2023-05-11T19:13:13.061Z,12.70
2023-05-11T19:15:40.336Z,12.50
2023-05-11T19:18:07.190Z,12.40
2023-05-11T19:20:35.008Z,12.30
2023-05-11T19:23:02.075Z,12.20
2023-05-11T19:25:30.684Z,12.20
2023-05-11T19:27:57.648Z,12.10
2023-05-11T19:30:24.957Z,12.00
2023-05-11T19:32:51.892Z,12.00
2023-05-11T19:35:19.184Z,11.90
2023-05-11T19:37:48.543Z,11.90
2023-05-11T19:40:44.693Z,11.80
2023-05-11T19:43:07.576Z,11.70
2023-05-11T19:45:35.407Z,11.60
2023-05-11T19:48:02.451Z,11.50
2023-05-11T19:50:29.340Z,11.40
2023-05-11T19:52:57.050Z,11.30
2023-05-11T19:55:24.452Z,11.30
2023-05-11T19:57:51.813Z,11.20
2023-05-11T20:00:19.023Z,11.10
2023-05-11T20:02:46.529Z,11.00
2023-05-11T20:05:13.467Z,11.00
2023-05-11T20:07:40.303Z,10.90
2023-05-11T20:10:10.756Z,10.80
2023-05-11T20:12:40.443Z,10.80
2023-05-11T20:15:08.714Z,10.70
2023-05-11T20:17:35.999Z,10.60
2023-05-11T20:20:03.541Z,10.60
2023-05-11T20:22:31.834Z,10.50
2023-05-11T20:24:58.890Z,10.50
2023-05-11T20:27:26.140Z,10.50
2023-05-11T20:29:52.832Z,10.40
2023-05-11T20:32:19.739Z,10.40
2023-05-11T20:34:46.597Z,10.40
2023-05-11T20:37:14.306Z,10.30
2023-05-11T20:39:41.063Z,10.30
2023-05-11T20:42:08.768Z,10.30
2023-05-11T20:44:36.599Z,10.20
2023-05-11T20:47:04.808Z,10.10
2023-05-11T20:49:38.726Z,10.10
2023-05-11T20:52:07.684Z,10.10
2023-05-11T20:54:35.653Z,10.10
2023-05-11T20:57:04.178Z,10.00
2023-05-11T21:02:01.410Z,9.90
2023-05-11T21:04:29.769Z,9.90
2023-05-11T21:06:56.717Z,9.90
2023-05-11T21:09:23.584Z,10.00
2023-05-11T21:11:50.322Z,10.10
2023-05-11T21:14:17.061Z,10.10
2023-05-11T21:16:43.859Z,10.10
2023-05-11T21:19:10.740Z,10.10
2023-05-11T21:21:37.831Z,10.10
2023-05-11T21:24:06.116Z,10.10
2023-05-11T21:26:33.005Z,10.00
2023-05-11T21:28:59.903Z,10.00
2023-05-11T21:31:27.137Z,10.00
2023-05-11T21:33:54.393Z,10.00
2023-05-11T21:36:22.178Z,10.00
2023-05-11T21:38:49.082Z,10.00
2023-05-11T21:41:17.892Z,10.00
2023-05-11T21:43:44.814Z,10.00
2023-05-11T21:46:12.591Z,10.00
2023-05-11T21:48:39.681Z,10.00
2023-05-11T21:51:06.412Z,10.00
2023-05-11T21:53:33.158Z,10.00
2023-05-11T21:55:59.960Z,10.00
2023-05-11T21:58:27.522Z,10.10
2023-05-11T22:00:55.064Z,10.10
2023-05-11T22:03:21.908Z,10.10
2023-05-11T22:05:48.818Z,10.20
2023-05-11T22:08:16.080Z,10.20
2023-05-11T22:10:43.286Z,10.20
2023-05-11T22:13:10.459Z,10.30
2023-05-11T22:15:38.325Z,10.20
2023-05-11T22:18:05.273Z,10.20
2023-05-11T22:20:32.198Z,10.30
2023-05-11T22:22:59.429Z,10.30
2023-05-11T22:25:26.529Z,10.30
2023-05-11T22:27:53.398Z,10.30
2023-05-11T22:30:20.620Z,10.20
2023-05-11T22:32:47.668Z,10.20
2023-05-11T22:35:14.485Z,10.20
2023-05-11T22:37:41.601Z,10.20
2023-05-11T22:40:09.557Z,10.20
2023-05-11T22:42:36.301Z,10.20
2023-05-11T22:45:03.315Z,10.20
2023-05-11T22:47:30.155Z,10.20
2023-05-11T22:49:57.102Z,10.20
2023-05-11T22:52:25.141Z,10.20
2023-05-11T22:54:55.264Z,10.20
2023-05-11T22:57:23.953Z,10.10
2023-05-11T22:59:50.677Z,10.20
2023-05-11T23:02:17.938Z,10.20
2023-05-11T23:04:50.284Z,10.10
2023-05-11T23:07:17.023Z,10.10
2023-05-11T23:09:44.363Z,10.10
2023-05-11T23:12:12.096Z,10.00
2023-05-11T23:14:39.208Z,10.00
2023-05-11T23:17:07.505Z,10.00
2023-05-11T23:19:34.577Z,10.00
2023-05-11T23:22:01.651Z,10.00
2023-05-11T23:24:28.957Z,9.90
2023-05-11T23:26:56.068Z,10.00
2023-05-11T23:29:23.029Z,9.90
2023-05-11T23:31:50.995Z,9.90
2023-05-11T23:34:18.107Z,9.90
2023-05-11T23:36:44.924Z,9.90
2023-05-11T23:39:11.689Z,9.80
2023-05-11T23:41:38.958Z,9.80
2023-05-11T23:44:05.733Z,9.90
2023-05-11T23:46:32.658Z,9.80
2023-05-11T23:48:59.562Z,9.90
2023-05-11T23:51:26.282Z,9.80
2023-05-11T23:53:53.125Z,9.80
2023-05-11T23:56:19.937Z,9.80
2023-05-11T23:58:46.729Z,9.70
